Time;durP1;ratioP1;P1;durP2;ratioP2;P2;SDS_P1;SDS_P2;PMS_P1;PMS_P2;Temp;Humidity;BMP_temperature;BMP_pressure;BME280_temperature;BME280_humidity;BME280_pressure;Samples;Min_cycle;Max_cycle;Signal;HPM_P1;HPM_P2
2023/04/21 00:01:08;;;;;;;20.00;10.93;;;;;;;10.79;100.00;101247.54;5107559;56;1145079;-80
2023/04/21 00:06:11;;;;;;;26.50;11.90;;;;;;;10.74;100.00;101250.11;5093790;55;1145097;-78
2023/04/21 00:11:17;;;;;;;25.00;13.45;;;;;;;10.66;100.00;101245.34;5106884;55;1145074;-78
2023/04/21 00:16:23;;;;;;;15.87;10.80;;;;;;;10.55;100.00;101239.42;5126145;55;1145059;-78
2023/04/21 00:21:28;;;;;;;19.73;11.73;;;;;;;10.54;100.00;101241.69;5105749;55;1145035;-78
2023/04/21 00:26:34;;;;;;;20.50;11.27;;;;;;;10.50;100.00;101242.86;5106118;55;1145081;-78
2023/04/21 00:31:40;;;;;;;21.37;11.60;;;;;;;10.47;100.00;101239.56;5126185;55;1145107;-78
2023/04/21 00:36:46;;;;;;;20.37;12.43;;;;;;;10.40;100.00;101239.10;5106909;55;1145030;-78
2023/04/21 00:41:51;;;;;;;19.27;11.70;;;;;;;10.36;100.00;101238.10;5106651;55;1144937;-78
2023/04/21 00:46:57;;;;;;;25.30;11.90;;;;;;;10.34;100.00;101235.55;5126367;55;1145036;-78
2023/04/21 00:52:05;;;;;;;20.88;11.65;;;;;;;10.24;100.00;101230.47;5106298;55;1145137;-78
2023/04/21 00:57:12;;;;;;;21.37;11.12;;;;;;;10.15;100.00;101231.89;5105593;55;1145220;-78
2023/04/21 01:02:18;;;;;;;17.32;10.23;;;;;;;10.12;100.00;101233.41;5050419;56;1145057;-78
2023/04/21 01:07:26;;;;;;;19.77;11.00;;;;;;;10.11;100.00;101226.89;5126817;56;1144926;-78
2023/04/21 01:12:32;;;;;;;19.73;11.10;;;;;;;10.07;100.00;101225.42;5106610;56;1145289;-78
2023/04/21 01:17:39;;;;;;;18.30;11.93;;;;;;;10.03;100.00;101223.91;5103679;56;1144869;-78
2023/04/21 01:22:45;;;;;;;20.57;11.67;;;;;;;9.97;100.00;101230.89;5122250;56;1145074;-78
2023/04/21 01:27:51;;;;;;;18.33;11.73;;;;;;;9.96;100.00;101222.59;5102360;56;1142907;-78
2023/04/21 01:32:59;;;;;;;20.07;11.67;;;;;;;9.89;100.00;101227.44;5102557;56;1142917;-79
2023/04/21 01:38:05;;;;;;;19.00;11.30;;;;;;;9.87;100.00;101231.49;5031124;55;1142816;-79
2023/04/21 01:43:11;;;;;;;17.73;11.18;;;;;;;9.78;100.00;101222.81;5022857;56;1142947;-78
2023/04/21 01:48:19;;;;;;;20.17;11.12;;;;;;;9.70;100.00;101230.85;4999065;57;1143078;-78
2023/04/21 01:53:25;;;;;;;22.10;11.53;;;;;;;9.71;100.00;101231.23;4999239;57;1143189;-78
2023/04/21 01:58:31;;;;;;;21.30;11.43;;;;;;;9.70;100.00;101230.85;5018496;57;1143062;-78
2023/04/21 02:03:37;;;;;;;16.37;10.13;;;;;;;9.64;100.00;101230.75;5029844;56;1143246;-78
2023/04/21 02:08:42;;;;;;;22.90;12.68;;;;;;;9.59;100.00;101226.25;5082000;56;1142905;-79
2023/04/21 02:13:48;;;;;;;18.63;11.53;;;;;;;9.52;100.00;101236.80;5102329;56;1142810;-78
2023/04/21 02:18:58;;;;;;;16.97;12.13;;;;;;;9.45;100.00;101235.50;5010032;57;1142984;-78
2023/04/21 02:24:05;;;;;;;19.00;11.17;;;;;;;9.37;100.00;101229.35;5013809;56;1142815;-78
2023/04/21 02:29:10;;;;;;;16.42;11.22;;;;;;;9.36;100.00;101226.33;5028863;57;1143317;-78
2023/04/21 02:34:16;;;;;;;23.83;11.78;;;;;;;9.32;100.00;101234.05;5008530;56;1143150;-79
2023/04/21 02:39:21;;;;;;;22.50;12.03;;;;;;;9.26;100.00;101234.91;4998575;56;1142996;-78
2023/04/21 02:44:27;;;;;;;16.30;9.83;;;;;;;9.17;100.00;101234.98;4931749;57;1142986;-78
2023/04/21 02:49:33;;;;;;;18.70;10.07;;;;;;;9.11;100.00;101234.05;4937787;58;1140950;-79
2023/04/21 02:54:38;;;;;;;18.27;11.63;;;;;;;9.08;100.00;101232.91;4917956;58;1143031;-78
2023/04/21 02:59:44;;;;;;;19.47;11.70;;;;;;;9.03;100.00;101234.96;4938488;57;1142946;-79
2023/04/21 03:04:50;;;;;;;18.50;11.63;;;;;;;8.96;100.00;101233.17;5010648;57;1142882;-78
2023/04/21 03:09:55;;;;;;;20.27;11.90;;;;;;;8.95;100.00;101233.27;4969798;57;1143054;-78
2023/04/21 03:15:01;;;;;;;21.93;10.80;;;;;;;8.87;100.00;101228.89;4918569;57;1143083;-79
2023/04/21 03:20:09;;;;;;;24.70;11.60;;;;;;;8.87;100.00;101233.70;4940612;57;1142986;-79
2023/04/21 03:25:15;;;;;;;20.08;11.20;;;;;;;8.90;100.00;101234.00;4914464;58;1142989;-77
2023/04/21 03:30:22;;;;;;;22.60;11.80;;;;;;;8.85;100.00;101231.66;4958841;57;1143039;-79
2023/04/21 03:35:29;;;;;;;23.53;10.53;;;;;;;8.79;100.00;101229.36;5018610;56;1142842;-78
2023/04/21 03:40:35;;;;;;;23.20;10.13;;;;;;;8.67;100.00;101228.30;4992604;56;1142952;-78
2023/04/21 03:45:41;;;;;;;20.43;12.07;;;;;;;8.64;100.00;101227.16;4911275;56;1142886;-78
2023/04/21 03:50:47;;;;;;;20.20;11.70;;;;;;;8.59;100.00;101230.52;4979884;56;1142910;-79
2023/04/21 03:55:53;;;;;;;20.43;11.17;;;;;;;8.55;100.00;101230.80;4960770;56;1142983;-80
2023/04/21 04:00:58;;;;;;;22.20;10.33;;;;;;;8.49;100.00;101231.15;5002332;56;1142956;-77
2023/04/21 04:06:04;;;;;;;17.60;9.53;;;;;;;8.48;100.00;101225.49;5061988;55;1143084;-77
2023/04/21 04:11:10;;;;;;;22.73;10.53;;;;;;;8.50;100.00;101223.16;5042788;57;1141065;-78
2023/04/21 04:16:15;;;;;;;21.33;11.07;;;;;;;8.54;100.00;101233.06;5053020;56;1143021;-78
2023/04/21 04:21:21;;;;;;;26.27;12.73;;;;;;;8.55;100.00;101222.43;4991253;56;1143130;-78
2023/04/21 04:26:27;;;;;;;15.93;11.33;;;;;;;8.59;100.00;101225.72;5032596;57;1142909;-77
2023/04/21 04:31:33;;;;;;;20.27;11.13;;;;;;;8.60;100.00;101234.86;5027805;57;1142858;-77
2023/04/21 04:36:39;;;;;;;19.73;10.37;;;;;;;8.60;100.00;101234.86;5030939;56;1141031;-78
2023/04/21 04:41:45;;;;;;;22.80;10.37;;;;;;;8.59;100.00;101229.20;5035852;56;1143054;-78
2023/04/21 04:46:51;;;;;;;21.27;11.87;;;;;;;8.58;100.00;101230.14;4960458;56;1143039;-77
2023/04/21 04:51:58;;;;;;;20.10;11.30;;;;;;;8.62;100.00;101238.72;4960478;56;1143357;-78
2023/04/21 04:57:04;;;;;;;17.23;11.27;;;;;;;8.69;100.00;101235.66;4979898;57;1142958;-78
2023/04/21 05:02:09;;;;;;;16.07;10.30;;;;;;;8.73;100.00;101237.63;4975022;56;1143195;-79
2023/04/21 05:07:15;;;;;;;19.47;10.70;;;;;;;8.74;100.00;101236.69;5052427;56;1142940;-78
2023/04/21 05:12:21;;;;;;;18.37;9.53;;;;;;;8.77;100.00;101242.64;5002553;57;1143174;-79
2023/04/21 05:17:27;;;;;;;16.32;10.65;;;;;;;8.83;100.00;101241.44;5017320;56;1140938;-78
2023/04/21 05:22:37;;;;;;;16.97;10.40;;;;;;;8.89;100.00;101241.53;4965542;57;1143113;-78
2023/04/21 05:27:43;;;;;;;19.30;10.63;;;;;;;8.96;100.00;101243.73;4956297;57;1143175;-78
2023/04/21 05:32:49;;;;;;;17.07;8.80;;;;;;;9.14;100.00;101241.32;4975779;58;1143099;-76
2023/04/21 05:37:55;;;;;;;22.13;8.97;;;;;;;9.45;100.00;101245.59;4956559;58;1140763;-77
2023/04/21 05:43:00;;;;;;;20.03;9.90;;;;;;;9.74;100.00;101241.14;5005598;57;1140896;-76
2023/04/21 05:48:06;;;;;;;12.57;9.67;;;;;;;10.03;100.00;101240.61;5103467;56;1141042;-76
2023/04/21 05:53:12;;;;;;;16.60;8.48;;;;;;;10.31;100.00;101241.51;5009659;56;1143224;-76
2023/04/21 05:58:18;;;;;;;18.53;8.70;;;;;;;10.58;100.00;101232.61;4982763;57;1142989;-77
2023/04/21 06:03:23;;;;;;;14.35;8.83;;;;;;;10.80;100.00;101228.07;4998712;57;1143196;-77
2023/04/21 06:08:29;;;;;;;14.87;7.90;;;;;;;11.09;100.00;101226.09;5018834;56;1142880;-77
2023/04/21 06:13:35;;;;;;;13.40;8.27;;;;;;;11.36;100.00;101221.16;5005878;57;1143046;-75
2023/04/21 06:18:40;;;;;;;16.67;8.97;;;;;;;11.63;100.00;101223.19;5005855;57;1142913;-76
2023/04/21 06:23:46;;;;;;;14.90;8.50;;;;;;;11.89;100.00;101220.06;5019077;56;1143026;-75
2023/04/21 06:28:51;;;;;;;11.63;8.00;;;;;;;12.14;100.00;101226.59;4999169;56;1142897;-77
2023/04/21 06:33:57;;;;;;;13.83;8.37;;;;;;;12.40;100.00;101225.16;4999216;55;1143017;-75
2023/04/21 06:39:03;;;;;;;13.57;7.33;;;;;;;12.64;100.00;101222.02;5018762;57;1143099;-76
2023/04/21 06:44:12;;;;;;;17.80;7.27;;;;;;;12.85;100.00;101220.86;4997783;57;1143324;-77
2023/04/21 06:49:16;;;;;;;15.45;8.13;;;;;;;13.02;100.00;101213.30;4976536;57;1142786;-77
2023/04/21 06:54:22;;;;;;;19.35;7.75;;;;;;;13.17;100.00;101220.61;5007457;57;1143111;-76
2023/04/21 06:59:28;;;;;;;11.75;6.33;;;;;;;13.34;99.61;101215.31;5026514;57;1142864;-75
2023/04/21 07:04:33;;;;;;;11.40;6.63;;;;;;;13.47;97.58;101219.18;4994404;57;1140777;-76
2023/04/21 07:09:39;;;;;;;9.20;5.87;;;;;;;13.62;98.68;101220.63;5013249;57;1140788;-78
2023/04/21 07:14:44;;;;;;;12.30;6.77;;;;;;;13.79;98.95;101216.63;5022748;56;1139064;-77
2023/04/21 07:19:50;;;;;;;11.80;6.20;;;;;;;13.99;96.73;101220.72;4932183;57;1140902;-77
2023/04/21 07:24:55;;;;;;;13.80;6.30;;;;;;;14.25;98.08;101221.73;4932430;57;1140849;-77
2023/04/21 07:30:01;;;;;;;11.53;6.57;;;;;;;14.41;94.33;101216.40;4951610;57;1140813;-77
2023/04/21 07:35:08;;;;;;;15.77;6.30;;;;;;;14.59;96.35;101222.50;4871995;57;1140854;-76
2023/04/21 07:40:13;;;;;;;10.43;5.17;;;;;;;14.81;94.85;101212.25;4932653;56;1140791;-75
2023/04/21 07:45:19;;;;;;;15.60;6.33;;;;;;;15.03;93.20;101208.95;5025293;56;1140801;-77
2023/04/21 07:50:25;;;;;;;10.75;6.10;;;;;;;15.17;91.67;101211.77;5086548;57;1140767;-77
2023/04/21 07:55:31;;;;;;;9.33;6.13;;;;;;;15.26;89.82;101212.32;5066697;57;1141183;-77
2023/04/21 08:00:37;;;;;;;11.20;6.00;;;;;;;15.39;90.74;101206.28;4901601;58;1139113;-78
2023/04/21 08:05:42;;;;;;;8.80;6.43;;;;;;;15.56;87.44;101207.52;5032586;56;1140963;-77
2023/04/21 08:10:48;;;;;;;8.07;5.80;;;;;;;15.74;86.99;101205.02;5013164;57;1138735;-77
2023/04/21 08:15:54;;;;;;;10.03;5.83;;;;;;;15.97;91.87;101203.84;4919819;58;1138969;-78
2023/04/21 08:21:01;;;;;;;9.30;5.60;;;;;;;16.17;87.24;101202.06;5042640;56;1140785;-78
2023/04/21 08:26:06;;;;;;;9.33;5.90;;;;;;;16.23;81.11;101204.16;5066925;56;1138735;-78
2023/04/21 08:31:13;;;;;;;11.33;5.60;;;;;;;16.32;83.99;101197.16;5058704;56;1138718;-79
2023/04/21 08:36:19;;;;;;;10.48;5.17;;;;;;;16.55;78.73;101197.22;5066862;56;1140920;-78
2023/04/21 08:41:26;;;;;;;9.70;4.70;;;;;;;16.65;72.73;101199.41;5073589;56;1141016;-78
2023/04/21 08:46:33;;;;;;;7.30;5.23;;;;;;;16.73;72.67;101185.37;5013171;57;1138734;-77
2023/04/21 08:51:39;;;;;;;6.43;5.00;;;;;;;16.79;74.60;101190.16;4996719;57;1138820;-78
2023/04/21 08:56:45;;;;;;;7.80;4.77;;;;;;;17.02;73.35;101187.49;5030323;57;1138927;-78
2023/04/21 09:02:16;;;;;;;8.07;4.17;;;;;;;17.09;72.04;101181.94;4947020;57;1138990;-76
2023/04/21 09:07:41;;;;;;;7.30;4.00;;;;;;;17.12;67.98;101174.09;4998999;57;1138962;-78
2023/04/21 09:12:52;;;;;;;7.80;3.93;;;;;;;17.20;67.23;101171.05;4999590;57;1138686;-76
2023/04/21 09:17:57;;;;;;;6.50;3.40;;;;;;;17.31;65.73;101181.21;4944654;57;1138960;-78
2023/04/21 09:23:05;;;;;;;4.77;3.97;;;;;;;17.42;69.18;101173.84;4922510;58;1138924;-77
2023/04/21 09:28:15;;;;;;;6.53;3.70;;;;;;;17.55;65.51;101177.54;4929222;57;1138720;-76
2023/04/21 09:33:20;;;;;;;10.90;3.90;;;;;;;17.57;62.99;101170.18;4929366;57;1138657;-77
2023/04/21 09:38:26;;;;;;;4.55;3.60;;;;;;;17.70;65.97;101161.38;4948207;58;1140817;-78
2023/04/21 09:43:32;;;;;;;4.30;3.55;;;;;;;17.92;63.01;101170.80;4926151;57;1138968;-78
2023/04/21 09:48:40;;;;;;;3.80;3.10;;;;;;;17.95;60.76;101165.65;4925097;58;1139076;-78
2023/04/21 09:53:48;;;;;;;7.40;4.03;;;;;;;18.10;60.31;101161.46;4943804;58;1138979;-78
2023/04/21 09:58:57;;;;;;;9.90;3.77;;;;;;;18.20;61.62;101163.55;4947523;57;1138853;-78
2023/04/21 10:04:03;;;;;;;5.73;3.27;;;;;;;18.38;60.98;101154.19;5047123;57;1138807;-76
2023/04/21 10:09:12;;;;;;;4.10;3.70;;;;;;;18.48;59.83;101158.98;5033208;57;1138748;-78
2023/04/21 10:14:17;;;;;;;5.27;3.73;;;;;;;18.67;56.58;101160.16;5008907;57;1138787;-78
2023/04/21 10:19:28;;;;;;;8.90;4.53;;;;;;;18.73;59.20;101146.14;5013663;57;1138928;-79
2023/04/21 10:24:42;;;;;;;5.77;3.87;;;;;;;18.87;59.13;101146.07;5033125;57;1138912;-78
2023/04/21 10:29:48;;;;;;;5.93;3.40;;;;;;;18.94;58.26;101131.05;5013495;57;1138863;-76
2023/04/21 10:34:53;;;;;;;9.33;3.70;;;;;;;19.07;58.90;101130.62;5013464;57;1138775;-79
2023/04/21 10:39:59;;;;;;;6.60;4.03;;;;;;;19.24;55.92;101126.53;4974209;57;1138693;-77
2023/04/21 10:45:09;;;;;;;8.25;4.35;;;;;;;19.37;55.01;101128.77;5013091;57;1138874;-77
2023/04/21 10:50:24;;;;;;;7.62;3.72;;;;;;;19.40;54.13;101127.60;5018761;57;1138879;-79
2023/04/21 10:55:31;;;;;;;7.47;3.57;;;;;;;19.46;53.34;101125.59;5009334;57;1138946;-76
2023/04/21 11:00:38;;;;;;;15.30;4.30;;;;;;;19.50;56.03;101112.23;5068763;56;1138935;-78
2023/04/21 11:05:43;;;;;;;9.83;4.03;;;;;;;19.51;51.54;101112.08;5082158;56;1140854;-79
2023/04/21 11:10:53;;;;;;;5.85;3.35;;;;;;;19.51;51.66;101106.71;5082568;56;1138718;-77
2023/04/21 11:16:05;;;;;;;6.95;3.60;;;;;;;19.63;53.49;101105.91;5080056;56;1138692;-79
2023/04/21 11:21:23;;;;;;;5.62;3.55;;;;;;;19.77;52.10;101093.19;5008523;56;1141686;-78
2023/04/21 11:26:42;;;;;;;6.33;4.15;;;;;;;19.86;55.47;101092.19;4999617;56;1225634;-77
2023/04/21 11:31:48;;;;;;;6.35;4.35;;;;;;;19.96;46.84;101088.87;5074181;56;1252442;-78
2023/04/21 11:36:55;;;;;;;6.22;3.87;;;;;;;19.91;43.64;101076.43;5100366;56;1254661;-78
2023/04/21 11:42:01;;;;;;;8.33;4.62;;;;;;;20.01;46.02;101065.02;5050263;56;1254934;-77
2023/04/21 11:47:23;;;;;;;7.25;4.00;;;;;;;20.08;47.69;101068.39;4999722;56;1138954;-76
2023/04/21 11:52:36;;;;;;;8.93;5.17;;;;;;;20.18;48.15;101062.34;5001597;56;1148582;-79
2023/04/21 11:57:41;;;;;;;6.35;3.83;;;;;;;20.29;42.25;101060.18;5042383;56;1139134;-79
2023/04/21 12:02:56;;;;;;;16.75;13.20;;;;;;;20.35;40.90;101052.77;5019146;56;1138632;-77
2023/04/21 12:08:03;;;;;;;6.25;4.15;;;;;;;20.35;42.49;101051.92;4933368;58;1142883;-77
2023/04/21 12:13:09;;;;;;;47.43;28.60;;;;;;;20.53;42.96;101043.71;5069144;56;1138999;-77
2023/04/21 12:18:14;;;;;;;18.65;11.10;;;;;;;20.61;41.01;101043.72;4943569;57;1143171;-78
2023/04/21 12:23:20;;;;;;;8.50;4.00;;;;;;;20.68;42.05;101040.16;5027619;56;1198393;-79
2023/04/21 12:28:26;;;;;;;30.92;5.60;;;;;;;20.76;42.06;101029.06;5060957;56;1246339;-77
2023/04/21 12:33:31;;;;;;;9.93;5.63;;;;;;;20.86;45.33;101031.03;5047039;56;1166031;-78
2023/04/21 12:38:37;;;;;;;8.10;4.78;;;;;;;20.96;39.93;101039.22;4933792;57;1138756;-78
2023/04/21 12:43:43;;;;;;;9.40;6.67;;;;;;;20.91;38.42;101028.16;5045315;56;1230968;-77
2023/04/21 12:48:51;;;;;;;11.15;7.08;;;;;;;20.93;43.29;101022.08;5075694;56;1138997;-78
2023/04/21 12:53:56;;;;;;;8.28;5.33;;;;;;;20.95;40.18;101021.41;5078063;56;1141067;-76
2023/04/21 12:59:01;;;;;;;65.60;9.20;;;;;;;20.97;40.94;101018.55;4970039;56;1138974;-79
2023/04/21 13:04:08;;;;;;;95.12;10.72;;;;;;;21.09;43.80;101006.38;4991655;56;1140851;-79
2023/04/21 13:09:14;;;;;;;8.08;4.28;;;;;;;21.18;42.42;101008.04;4994180;56;1142903;-77
2023/04/21 13:14:20;;;;;;;6.50;3.86;;;;;;;21.16;39.51;100991.23;4976875;57;1138709;-78
2023/04/21 13:19:25;;;;;;;6.33;4.30;;;;;;;21.12;38.72;100992.59;5068841;56;1138975;-76
2023/04/21 13:24:31;;;;;;;9.05;3.67;;;;;;;20.98;35.35;100991.48;5120897;56;1138878;-76
2023/04/21 13:29:36;;;;;;;5.00;3.02;;;;;;;20.90;36.41;100990.69;5070217;56;1138944;-78
2023/04/21 13:34:42;;;;;;;8.50;4.53;;;;;;;20.93;40.05;100970.19;5066762;56;1138872;-78
2023/04/21 13:39:48;;;;;;;9.00;4.80;;;;;;;20.97;40.53;100966.95;5052814;57;1138698;-78
2023/04/21 13:44:53;;;;;;;6.22;3.95;;;;;;;21.02;37.33;100963.73;5068546;56;1138844;-78
2023/04/21 13:49:59;;;;;;;8.68;3.45;;;;;;;20.87;37.13;100964.15;5059101;56;1139027;-78
2023/04/21 13:55:05;;;;;;;9.40;5.45;;;;;;;20.95;38.38;100957.38;5086862;56;1138961;-78
2023/04/21 14:00:12;;;;;;;8.08;3.60;;;;;;;20.96;37.97;100950.48;5069498;56;1138862;-77
2023/04/21 14:05:17;;;;;;;17.42;6.10;;;;;;;21.01;38.44;100936.00;5079339;56;1138949;-77
2023/04/21 14:10:23;;;;;;;11.17;5.70;;;;;;;21.10;36.99;100934.09;5026578;56;1140907;-77
2023/04/21 14:15:29;;;;;;;7.35;4.85;;;;;;;21.02;36.20;100931.47;5018990;56;1140909;-78
2023/04/21 14:20:35;;;;;;;7.25;5.67;;;;;;;21.01;35.61;100927.94;5025458;56;1138773;-76
2023/04/21 14:25:41;;;;;;;3.50;3.20;;;;;;;21.04;34.19;100928.94;5054632;56;1138744;-78
2023/04/21 14:30:46;;;;;;;5.87;3.17;;;;;;;20.95;31.95;100921.91;5059021;56;1138744;-78
2023/04/21 14:35:52;;;;;;;7.30;3.95;;;;;;;20.87;34.57;100912.56;4995876;56;1138839;-77
2023/04/21 14:40:58;;;;;;;5.58;3.10;;;;;;;20.85;33.63;100909.20;5039999;56;1138791;-77
2023/04/21 14:46:04;;;;;;;5.92;2.92;;;;;;;20.82;33.65;100898.80;5062860;56;1138779;-76
2023/04/21 14:51:10;;;;;;;10.63;3.55;;;;;;;20.83;34.89;100895.09;5012874;57;1138759;-78
2023/04/21 14:56:15;;;;;;;10.32;4.08;;;;;;;20.80;33.16;100891.91;5063520;56;1140712;-78
2023/04/21 15:01:22;;;;;;;6.08;3.80;;;;;;;20.73;34.02;100885.08;5022230;57;1140899;-77
2023/04/21 15:06:27;;;;;;;8.70;3.08;;;;;;;20.61;32.35;100869.86;4983488;57;1138967;-77
2023/04/21 15:11:33;;;;;;;14.23;8.58;;;;;;;20.61;34.33;100865.83;5039988;56;1138964;-78
2023/04/21 15:16:38;;;;;;;11.00;3.65;;;;;;;20.63;35.60;100865.62;5055841;56;1140944;-77
2023/04/21 15:21:44;;;;;;;7.08;5.42;;;;;;;20.63;35.03;100862.42;4911875;57;1140873;-78
2023/04/21 15:26:50;;;;;;;9.70;3.80;;;;;;;20.61;35.69;100853.73;4936298;57;1138693;-72
2023/04/21 15:31:55;;;;;;;7.90;3.55;;;;;;;20.60;33.11;100853.40;4941849;57;1138685;-76
2023/04/21 15:37:01;;;;;;;16.73;8.30;;;;;;;20.57;36.16;100844.84;4961408;55;1138761;-77
2023/04/21 15:42:08;;;;;;;3.52;3.00;;;;;;;20.62;37.66;100843.82;4963193;55;1141097;-81
2023/04/21 15:47:15;;;;;;;7.75;3.00;;;;;;;20.69;38.17;100838.05;5064744;56;1139037;-75
2023/04/21 15:52:21;;;;;;;13.05;3.77;;;;;;;20.75;38.61;100829.29;4961576;56;1138890;-79
2023/04/21 15:57:27;;;;;;;16.57;14.95;;;;;;;20.79;38.32;100830.59;5078894;56;1140813;-77
2023/04/21 16:02:33;;;;;;;8.07;3.43;;;;;;;20.68;36.86;100829.15;4990879;56;1143047;-76
2023/04/21 16:07:40;;;;;;;14.43;6.23;;;;;;;20.59;36.69;100828.88;5012712;57;1138759;-76
2023/04/21 16:12:49;;;;;;;30.48;18.95;;;;;;;20.50;36.98;100827.23;5048375;56;1140923;-77
2023/04/21 16:17:53;;;;;;;13.88;3.75;;;;;;;20.52;37.11;100821.69;5068984;56;1142970;-84
2023/04/21 16:22:59;;;;;;;14.35;3.20;;;;;;;20.49;38.72;100818.83;5033048;56;1141128;-71
2023/04/21 16:28:05;;;;;;;9.85;5.65;;;;;;;20.38;38.99;100811.17;5053062;56;1141032;-77
2023/04/21 16:33:11;;;;;;;19.27;5.53;;;;;;;20.29;38.06;100806.84;5033279;56;1138667;-69
2023/04/21 16:38:18;;;;;;;14.95;7.15;;;;;;;20.08;38.56;100812.78;5042328;56;1141307;-73
2023/04/21 16:43:23;;;;;;;32.17;22.57;;;;;;;20.05;39.05;100804.23;4979209;57;1140918;-74
2023/04/21 16:48:29;;;;;;;17.15;9.48;;;;;;;20.00;38.65;100803.43;4958019;57;1143148;-75
2023/04/21 16:53:35;;;;;;;6.50;5.60;;;;;;;19.95;38.60;100801.75;4981408;57;1140826;-68
2023/04/21 16:58:41;;;;;;;21.45;4.78;;;;;;;19.92;39.60;100801.59;5117607;56;1138972;-75
2023/04/21 17:03:47;;;;;;;12.18;3.50;;;;;;;19.87;40.44;100795.89;5052328;57;1140774;-69
2023/04/21 17:08:58;;;;;;;8.55;3.35;;;;;;;19.72;41.05;100790.06;4976734;57;1140835;-76
2023/04/21 17:13:59;;;;;;;16.05;3.37;;;;;;;19.58;41.85;100790.27;5007283;57;1138728;-72
2023/04/21 17:19:05;;;;;;;7.35;2.95;;;;;;;19.44;42.34;100789.09;5062502;56;1140874;-74
2023/04/21 17:24:11;;;;;;;15.63;4.70;;;;;;;19.31;43.13;100787.42;5007748;57;1138968;-76
2023/04/21 17:29:16;;;;;;;11.65;3.98;;;;;;;19.17;43.70;100780.91;5106607;56;1140885;-78
2023/04/21 17:34:22;;;;;;;16.85;4.17;;;;;;;19.03;44.25;100783.42;5107142;56;1140895;-75
2023/04/21 17:39:27;;;;;;;7.53;3.62;;;;;;;18.89;45.32;100782.23;5127310;56;1140951;-76
2023/04/21 17:44:33;;;;;;;14.90;6.50;;;;;;;18.73;45.85;100777.70;5099114;56;1138946;-73
2023/04/21 17:49:39;;;;;;;15.60;8.55;;;;;;;18.61;46.59;100785.22;5096515;56;1140870;-80
2023/04/21 17:54:45;;;;;;;18.98;9.00;;;;;;;18.52;47.42;100782.64;5113613;56;1141107;-74
2023/04/21 17:59:50;;;;;;;14.05;7.53;;;;;;;18.49;47.92;100789.66;5102868;56;1141142;-74
2023/04/21 18:04:56;;;;;;;22.95;7.00;;;;;;;18.51;48.70;100787.66;5105259;56;1140911;-75
2023/04/21 18:10:02;;;;;;;13.24;6.82;;;;;;;18.40;48.81;100780.77;5127136;56;1140768;-76
2023/04/21 18:15:08;;;;;;;20.92;7.00;;;;;;;18.28;49.01;100791.45;5104721;55;1140803;-80
2023/04/21 18:20:15;;;;;;;25.00;8.70;;;;;;;18.21;50.16;100783.22;5095894;55;1140806;-77
2023/04/21 18:25:20;;;;;;;26.62;7.30;;;;;;;18.11;50.97;100790.55;5096074;55;1140867;-76
2023/04/21 18:30:26;;;;;;;17.30;8.38;;;;;;;18.00;51.04;100788.66;5116762;55;1140975;-79
2023/04/21 18:35:32;;;;;;;131.95;56.33;;;;;;;17.92;52.17;100795.64;5096686;55;1141016;-74
2023/04/21 18:40:39;;;;;;;142.25;74.32;;;;;;;17.77;52.67;100797.23;5089295;56;1145270;-73
2023/04/21 18:45:45;;;;;;;90.92;45.73;;;;;;;17.52;52.65;100800.73;5074264;55;1145109;-73
2023/04/21 18:50:51;;;;;;;77.10;34.33;;;;;;;17.23;53.54;100796.52;5054074;56;1142903;-74
2023/04/21 18:55:57;;;;;;;67.97;31.87;;;;;;;17.07;54.41;100799.55;5056710;55;1142927;-79
2023/04/21 19:01:03;;;;;;;37.10;20.30;;;;;;;17.06;55.14;100797.38;5029327;56;1143036;-79
2023/04/21 19:06:09;;;;;;;31.23;18.00;;;;;;;17.08;55.77;100795.39;5016903;57;1142985;-76
2023/04/21 19:11:15;;;;;;;41.60;18.40;;;;;;;16.82;57.01;100779.77;4932114;57;1142974;-70
2023/04/21 19:16:21;;;;;;;43.43;17.77;;;;;;;16.82;57.01;100779.77;5008386;56;1143340;-76
2023/04/21 19:21:27;;;;;;;48.57;14.13;;;;;;;16.78;57.09;100792.61;5004368;57;1148039;-79
2023/04/21 19:26:32;;;;;;;31.95;11.75;;;;;;;16.61;57.74;100795.23;5010051;56;1142889;-78
2023/04/21 19:31:39;;;;;;;39.53;12.50;;;;;;;16.61;57.74;100795.23;5020353;57;1143052;-78
2023/04/21 19:36:45;;;;;;;45.60;19.83;;;;;;;16.43;57.78;100798.72;5040075;57;1143060;-74
2023/04/21 19:41:50;;;;;;;40.60;14.23;;;;;;;16.16;57.97;100808.91;5036802;56;1143193;-85
2023/04/21 19:46:56;;;;;;;43.37;20.63;;;;;;;15.81;58.27;100808.28;5091445;56;1143052;-75
2023/04/21 19:52:01;;;;;;;19.37;11.27;;;;;;;15.57;59.17;100809.27;5063565;55;1142890;-73
2023/04/21 19:57:07;;;;;;;15.80;8.50;;;;;;;15.15;60.65;100799.40;5100213;56;1143094;-79
2023/04/21 20:02:13;;;;;;;41.90;21.00;;;;;;;15.15;60.65;100799.40;5086030;56;1140880;-73
2023/04/21 20:07:19;;;;;;;63.13;33.85;;;;;;;15.19;60.87;100806.63;5096038;56;1143202;-79
2023/04/21 20:12:26;;;;;;;50.23;26.37;;;;;;;15.12;60.43;100810.36;5158786;55;1142943;-79
2023/04/21 20:17:32;;;;;;;36.24;20.36;;;;;;;14.98;60.24;100802.28;5110898;55;1143048;-71
2023/04/21 20:22:37;;;;;;;55.30;28.47;;;;;;;14.89;60.59;100811.12;5136726;55;1165309;-72
2023/04/21 20:27:43;;;;;;;47.10;21.73;;;;;;;14.83;60.82;100806.34;5209473;55;1142959;-70
2023/04/21 20:32:49;;;;;;;37.57;18.77;;;;;;;14.76;61.20;100806.07;5124511;55;1142936;-70
2023/04/21 20:37:55;;;;;;;27.30;13.53;;;;;;;14.72;61.38;100813.98;5136967;55;1143080;-67
2023/04/21 20:43:01;;;;;;;18.97;9.90;;;;;;;14.61;61.51;100820.77;5156678;55;1142997;-72
2023/04/21 20:48:06;;;;;;;25.70;11.23;;;;;;;14.53;61.81;100811.27;5192455;55;1140992;-71
2023/04/21 20:53:12;;;;;;;19.60;8.83;;;;;;;14.31;61.83;100816.32;5125317;55;1142976;-68
2023/04/21 20:58:18;;;;;;;11.73;7.57;;;;;;;14.16;62.57;100820.33;5129781;55;1140705;-74
2023/04/21 21:03:24;;;;;;;20.20;8.87;;;;;;;14.08;63.18;100822.80;5136129;55;1140838;-68
2023/04/21 21:08:30;;;;;;;33.53;15.87;;;;;;;14.00;63.40;100828.81;5194261;55;1140881;-72
2023/04/21 21:13:35;;;;;;;31.97;17.25;;;;;;;13.93;63.68;100831.62;5127598;55;1142889;-72
2023/04/21 21:18:41;;;;;;;16.73;10.10;;;;;;;13.93;63.79;100830.30;5103149;55;1142945;-73
2023/04/21 21:23:46;;;;;;;20.17;9.07;;;;;;;13.81;63.53;100827.86;5171654;55;1142987;-72
2023/04/21 21:28:52;;;;;;;13.03;7.70;;;;;;;13.57;63.64;100826.34;5214507;55;1140838;-72
2023/04/21 21:33:57;;;;;;;18.10;8.93;;;;;;;13.45;64.27;100825.19;5194037;55;1140700;-70
2023/04/21 21:39:05;;;;;;;17.53;8.57;;;;;;;13.40;64.78;100825.61;5193795;55;1140798;-72
2023/04/21 21:44:10;;;;;;;13.93;7.70;;;;;;;13.38;64.53;100815.59;5213989;55;1141059;-73
2023/04/21 21:49:16;;;;;;;13.97;7.17;;;;;;;13.28;64.24;100827.97;5193970;55;1140984;-68
2023/04/21 21:54:21;;;;;;;54.70;24.10;;;;;;;13.13;64.49;100824.75;5194040;55;1140837;-71
2023/04/21 21:59:27;;;;;;;28.35;14.28;;;;;;;13.17;65.09;100816.90;5157350;55;1143077;-69
2023/04/21 22:04:33;;;;;;;13.70;8.40;;;;;;;13.26;65.12;100825.92;5145503;55;1142882;-72
2023/04/21 22:09:38;;;;;;;14.38;7.40;;;;;;;13.29;65.40;100829.66;5107095;56;1140848;-74
2023/04/21 22:14:45;;;;;;;11.73;7.22;;;;;;;13.37;65.32;100835.16;5121423;55;1140842;-69
2023/04/21 22:19:52;;;;;;;18.70;7.67;;;;;;;13.34;65.22;100836.25;5203948;55;1140858;-71
2023/04/21 22:24:58;;;;;;;14.87;7.43;;;;;;;13.29;65.88;100829.66;5100810;56;1140840;-71
2023/04/21 22:30:03;;;;;;;9.20;6.00;;;;;;;13.21;66.03;100822.31;5082694;56;1141031;-72
2023/04/21 22:35:09;;;;;;;11.60;6.73;;;;;;;13.18;65.97;100828.36;5102402;57;1138733;-71
2023/04/21 22:40:15;;;;;;;11.47;5.67;;;;;;;13.02;65.91;100822.97;5074709;56;1140923;-69
2023/04/21 22:45:21;;;;;;;14.00;5.83;;;;;;;12.94;66.33;100825.91;5082355;56;1140926;-70
2023/04/21 22:50:26;;;;;;;9.95;5.50;;;;;;;12.83;66.20;100817.48;5082258;56;1140904;-69